Time;durP1;ratioP1;P1;durP2;ratioP2;P2;SDS_P1;SDS_P2;PMS_P1;PMS_P2;Temp;Humidity;BMP_temperature;BMP_pressure;BME280_temperature;BME280_humidity;BME280_pressure;Samples;Min_cycle;Max_cycle;Signal;HPM_P1;HPM_P2
2021/08/21 00:02:08;;;;;;;;;;;;;;;20.37;62.62;100927.22;5117086;28;954;-53
2021/08/21 00:04:37;;;;;;;;;;;;;;;20.54;63.04;100914.81;5116920;28;759;-59
2021/08/21 00:07:04;;;;;;;;;;;;;;;20.36;63.12;100914.53;5098114;28;1096;-48
2021/08/21 00:09:34;;;;;;;;;;;;;;;19.74;65.12;100919.88;5116738;28;838;-49
2021/08/21 00:11:59;;;;;;;;;;;;;;;19.69;64.65;100919.97;5116845;28;791;-48
2021/08/21 00:14:25;;;;;;;;;;;;;;;19.61;60.58;100919.44;5117388;28;791;-48
2021/08/21 00:16:50;;;;;;;;;;;;;;;19.51;58.71;100915.97;5116315;28;1106;-62
2021/08/21 00:19:16;;;;;;;;;;;;;;;20.20;60.34;100921.34;5114484;28;1922;-61
2021/08/21 00:21:41;;;;;;;;;;;;;;;20.36;62.47;100925.56;5101701;28;939;-55
2021/08/21 00:24:07;;;;;;;;;;;;;;;20.74;62.19;100913.78;5096455;28;775;-57
2021/08/21 00:26:32;;;;;;;;;;;;;;;20.21;63.32;100920.25;5096203;28;768;-47
2021/08/21 00:28:58;;;;;;;;;;;;;;;19.81;64.83;100921.22;5078431;28;820;-57
2021/08/21 00:31:23;;;;;;;;;;;;;;;19.71;64.46;100909.44;5097850;28;954;-57
2021/08/21 00:33:49;;;;;;;;;;;;;;;19.51;60.98;100913.22;5116805;28;843;-57
2021/08/21 00:36:15;;;;;;;;;;;;;;;19.47;57.70;100915.72;5116760;28;811;-58
2021/08/21 00:38:40;;;;;;;;;;;;;;;19.68;56.76;100910.84;5098521;28;2005;-61
2021/08/21 00:41:06;;;;;;;;;;;;;;;20.19;60.30;100915.00;5116609;28;736;-56
2021/08/21 00:43:34;;;;;;;;;;;;;;;20.60;61.32;100919.19;5116310;28;1461;-57
2021/08/21 00:45:59;;;;;;;;;;;;;;;20.97;61.69;100914.78;5121224;28;740;-57
2021/08/21 00:48:24;;;;;;;;;;;;;;;20.46;62.82;100911.63;5101996;28;1409;-45
2021/08/21 00:50:50;;;;;;;;;;;;;;;20.03;64.33;100903.31;5120639;28;744;-55
2021/08/21 00:53:16;;;;;;;;;;;;;;;19.72;63.64;100906.38;5121170;28;879;-58
2021/08/21 00:55:41;;;;;;;;;;;;;;;19.46;60.54;100906.66;5120679;28;780;-57
2021/08/21 00:58:07;;;;;;;;;;;;;;;19.55;57.15;100906.03;5102131;28;1917;-59
2021/08/21 01:00:32;;;;;;;;;;;;;;;20.28;58.32;100904.94;5102158;28;1192;-57
2021/08/21 01:02:58;;;;;;;;;;;;;;;20.71;60.31;100914.38;5101606;28;1109;-59
2021/08/21 01:05:24;;;;;;;;;;;;;;;20.63;62.41;100911.09;5102344;28;1165;-58
2021/08/21 01:07:49;;;;;;;;;;;;;;;21.06;61.09;100904.72;5120599;28;1113;-57
2021/08/21 01:10:16;;;;;;;;;;;;;;;20.05;64.06;100905.78;5101726;28;1193;-58
2021/08/21 01:12:52;;;;;;;;;;;;;;;19.85;64.54;100898.56;5102135;28;1105;-59
2021/08/21 01:15:18;;;;;;;;;;;;;;;19.25;61.95;100894.13;5120728;28;719;-59
2021/08/21 01:17:44;;;;;;;;;;;;;;;18.83;60.67;100898.28;5119715;28;1958;-58
2021/08/21 01:20:11;;;;;;;;;;;;;;;19.04;62.04;100894.31;5085230;28;1396;-60
2021/08/21 01:22:38;;;;;;;;;;;;;;;19.30;60.95;100899.63;5085818;28;1129;-60
2021/08/21 01:25:14;;;;;;;;;;;;;;;19.34;60.17;100884.13;5101363;28;1092;-52
2021/08/21 01:27:40;;;;;;;;;;;;;;;19.32;60.26;100900.13;5101919;28;1109;-58
2021/08/21 01:30:29;;;;;;;;;;;;;;;19.71;59.03;100893.69;5109257;28;1067;-56
2021/08/21 01:32:59;;;;;;;;;;;;;;;19.73;59.33;100885.97;5119540;28;1090;-58
2021/08/21 01:35:27;;;;;;;;;;;;;;;19.63;59.83;100897.13;5101728;28;1109;-50
2021/08/21 01:37:52;;;;;;;;;;;;;;;19.62;59.68;100896.28;5101611;28;1973;-55
2021/08/21 01:40:35;;;;;;;;;;;;;;;19.62;59.88;100889.94;5119723;28;823;-55
2021/08/21 01:43:13;;;;;;;;;;;;;;;19.61;59.69;100893.81;5101943;28;1125;-50
2021/08/21 01:45:46;;;;;;;;;;;;;;;19.54;59.96;100888.63;5101501;28;1195;-54
2021/08/21 01:48:12;;;;;;;;;;;;;;;19.78;59.43;100883.16;5100676;28;1380;-58
2021/08/21 01:50:37;;;;;;;;;;;;;;;18.94;61.80;100886.97;5120076;28;748;-58
2021/08/21 01:53:04;;;;;;;;;;;;;;;18.86;62.08;100879.25;5101498;28;1285;-57
2021/08/21 01:55:34;;;;;;;;;;;;;;;18.42;61.21;100886.41;5100255;28;1153;-57
2021/08/21 01:58:04;;;;;;;;;;;;;;;19.19;61.08;100887.84;5085417;28;1978;-48
2021/08/21 02:00:49;;;;;;;;;;;;;;;19.40;61.00;100885.72;5101551;28;1149;-58
2021/08/21 02:03:17;;;;;;;;;;;;;;;19.72;61.64;100876.03;5100924;28;1096;-58
2021/08/21 02:05:44;;;;;;;;;;;;;;;19.93;62.10;100871.13;5101323;28;1277;-47
2021/08/21 02:08:10;;;;;;;;;;;;;;;19.34;64.96;100872.31;5100995;28;1145;-57
2021/08/21 02:10:37;;;;;;;;;;;;;;;19.38;65.20;100871.41;5100810;28;1184;-58
2021/08/21 02:13:03;;;;;;;;;;;;;;;19.19;62.51;100876.81;5119531;28;812;-56
2021/08/21 02:15:29;;;;;;;;;;;;;;;19.41;60.23;100872.78;5101104;28;1145;-55
2021/08/21 02:17:59;;;;;;;;;;;;;;;19.80;62.81;100878.19;5100282;28;2004;-55
2021/08/21 02:20:46;;;;;;;;;;;;;;;20.27;64.04;100884.00;5118972;28;1074;-57
2021/08/21 02:23:18;;;;;;;;;;;;;;;20.75;62.40;100880.31;5100563;28;1264;-57
2021/08/21 02:25:43;;;;;;;;;;;;;;;19.87;64.80;100879.78;5100835;28;1184;-57
2021/08/21 02:28:14;;;;;;;;;;;;;;;19.75;65.02;100878.19;5100897;28;1330;-50
2021/08/21 02:30:40;;;;;;;;;;;;;;;19.54;62.92;100874.03;5118615;28;804;-57
2021/08/21 02:33:06;;;;;;;;;;;;;;;19.33;59.49;100888.00;5118330;28;1002;-49
2021/08/21 02:35:31;;;;;;;;;;;;;;;19.98;59.11;100881.31;5118868;28;732;-56
2021/08/21 02:37:57;;;;;;;;;;;;;;;20.26;60.86;100890.63;5119018;28;1905;-53
2021/08/21 02:40:22;;;;;;;;;;;;;;;20.37;63.00;100888.56;5118711;28;736;-46
2021/08/21 02:42:50;;;;;;;;;;;;;;;20.60;62.31;100886.84;5100011;28;815;-56
2021/08/21 02:45:15;;;;;;;;;;;;;;;20.23;62.96;100888.47;5118633;28;827;-56
2021/08/21 02:47:40;;;;;;;;;;;;;;;19.83;64.39;100896.91;5099958;28;1025;-50
2021/08/21 02:50:06;;;;;;;;;;;;;;;19.57;64.22;100893.59;5118396;28;760;-56
2021/08/21 02:52:32;;;;;;;;;;;;;;;19.12;61.12;100890.94;5118483;28;811;-57
2021/08/21 02:54:57;;;;;;;;;;;;;;;19.79;59.31;100898.59;5118212;28;851;-58
2021/08/21 02:57:23;;;;;;;;;;;;;;;20.35;60.60;100899.06;5099809;28;1980;-48
2021/08/21 02:59:50;;;;;;;;;;;;;;;20.65;61.73;100902.50;5100076;28;1530;-46
2021/08/21 03:02:16;;;;;;;;;;;;;;;20.45;62.15;100900.88;5099595;28;959;-57
2021/08/21 03:04:47;;;;;;;;;;;;;;;20.33;62.25;100898.56;5118380;28;825;-57
2021/08/21 03:07:19;;;;;;;;;;;;;;;19.92;63.66;100899.88;5100154;28;1599;-57
2021/08/21 03:09:48;;;;;;;;;;;;;;;19.71;62.64;100901.16;5099204;28;1198;-57
2021/08/21 03:12:15;;;;;;;;;;;;;;;18.93;60.11;100898.25;5100347;28;1408;-57
2021/08/21 03:14:48;;;;;;;;;;;;;;;19.47;60.96;100900.03;5100120;28;1232;-53
2021/08/21 03:17:14;;;;;;;;;;;;;;;19.33;61.01;100899.03;5099050;28;1384;-57
2021/08/21 03:19:42;;;;;;;;;;;;;;;19.38;58.97;100900.94;5099649;28;1899;-56
2021/08/21 03:22:10;;;;;;;;;;;;;;;19.30;58.69;100905.13;5093568;28;1576;-60
2021/08/21 03:24:39;;;;;;;;;;;;;;;19.47;58.79;100905.53;5090225;28;1301;-59
2021/08/21 03:27:06;;;;;;;;;;;;;;;19.43;59.46;100907.22;5096300;28;1149;-60
2021/08/21 03:29:34;;;;;;;;;;;;;;;19.51;59.96;100913.22;5097588;28;985;-60
2021/08/21 03:32:01;;;;;;;;;;;;;;;19.47;60.21;100918.50;5085963;28;1185;-59
2021/08/21 03:34:26;;;;;;;;;;;;;;;19.61;60.07;100916.69;5079121;28;1209;-56
2021/08/21 03:36:56;;;;;;;;;;;;;;;19.51;60.62;100918.75;5097653;28;812;-62
2021/08/21 03:39:22;;;;;;;;;;;;;;;19.79;60.04;100925.34;5093253;28;1913;-59
2021/08/21 03:41:48;;;;;;;;;;;;;;;19.44;60.98;100932.84;5099556;28;1161;-58
2021/08/21 03:44:15;;;;;;;;;;;;;;;18.92;63.18;100938.75;5099197;28;1618;-62
2021/08/21 03:46:40;;;;;;;;;;;;;;;18.78;62.24;100941.28;5116620;28;926;-47
2021/08/21 03:49:07;;;;;;;;;;;;;;;18.73;63.14;100935.81;5098827;28;1360;-58
2021/08/21 03:51:33;;;;;;;;;;;;;;;19.25;62.60;100935.50;5099402;28;1142;-58
2021/08/21 03:53:59;;;;;;;;;;;;;;;19.89;61.81;100935.50;5098725;28;1379;-55
2021/08/21 03:56:25;;;;;;;;;;;;;;;20.18;62.34;100938.22;5099195;28;1142;-55
2021/08/21 03:58:55;;;;;;;;;;;;;;;19.68;64.75;100935.66;5109697;28;1972;-55
2021/08/21 04:01:20;;;;;;;;;;;;;;;19.71;65.22;100935.06;5108122;28;1384;-55
2021/08/21 04:03:50;;;;;;;;;;;;;;;19.52;62.88;100934.16;5103119;28;1269;-46
2021/08/21 04:06:20;;;;;;;;;;;;;;;19.42;59.36;100933.16;5088906;28;1365;-51
2021/08/21 04:08:45;;;;;;;;;;;;;;;19.47;57.60;100930.38;5085056;28;1440;-56
2021/08/21 04:11:18;;;;;;;;;;;;;;;19.57;59.16;100931.38;5092072;28;1421;-56
2021/08/21 04:14:01;;;;;;;;;;;;;;;19.49;57.85;100938.34;5082960;28;1256;-48
2021/08/21 04:16:26;;;;;;;;;;;;;;;20.03;58.35;100933.69;5088811;28;1242;-57
2021/08/21 04:18:52;;;;;;;;;;;;;;;20.59;60.06;100934.09;5086282;28;2015;-59
2021/08/21 04:21:18;;;;;;;;;;;;;;;20.81;61.45;100931.59;5090946;28;1249;-46
2021/08/21 04:23:44;;;;;;;;;;;;;;;21.08;61.91;100937.59;5092432;28;1412;-57
2021/08/21 04:26:09;;;;;;;;;;;;;;;20.31;63.92;100944.97;5094343;28;1463;-49
2021/08/21 04:28:35;;;;;;;;;;;;;;;20.10;64.81;100939.66;5088398;28;1318;-59
2021/08/21 04:31:02;;;;;;;;;;;;;;;19.85;62.90;100937.19;5077946;28;1401;-46
2021/08/21 04:33:31;;;;;;;;;;;;;;;19.04;59.71;100938.41;5097914;28;1245;-55
2021/08/21 04:35:57;;;;;;;;;;;;;;;19.45;60.34;100945.53;5090318;28;1272;-54
2021/08/21 04:38:23;;;;;;;;;;;;;;;19.53;62.16;100941.31;5090001;28;1981;-54
2021/08/21 04:40:57;;;;;;;;;;;;;;;19.73;61.32;100951.38;5092477;28;1384;-51
2021/08/21 04:43:22;;;;;;;;;;;;;;;19.59;60.79;100942.94;5104344;28;1344;-55
2021/08/21 04:45:48;;;;;;;;;;;;;;;19.73;59.50;100946.66;5104256;28;969;-52
2021/08/21 04:48:14;;;;;;;;;;;;;;;19.64;59.52;100952.00;5095254;28;1884;-55
2021/08/21 04:50:40;;;;;;;;;;;;;;;19.71;59.28;100946.13;5098312;28;1129;-55
2021/08/21 04:53:06;;;;;;;;;;;;;;;19.53;59.60;100946.84;5098523;28;1274;-57
2021/08/21 04:55:33;;;;;;;;;;;;;;;19.75;59.02;100943.59;5092107;28;1476;-46
2021/08/21 04:57:59;;;;;;;;;;;;;;;19.70;59.11;100943.66;5108519;28;1974;-45
2021/08/21 05:00:25;;;;;;;;;;;;;;;19.71;59.24;100948.88;5079436;28;1244;-56
2021/08/21 05:03:04;;;;;;;;;;;;;;;19.71;59.19;100953.56;5094122;28;1118;-55
2021/08/21 05:05:31;;;;;;;;;;;;;;;19.72;59.20;100953.28;5077828;28;1293;-52
2021/08/21 05:07:58;;;;;;;;;;;;;;;19.76;59.13;100954.34;5078019;28;1118;-46
2021/08/21 05:10:24;;;;;;;;;;;;;;;19.19;60.86;100950.44;5078482;28;1229;-57
2021/08/21 05:12:50;;;;;;;;;;;;;;;19.04;61.50;100949.44;5077964;28;1253;-45
2021/08/21 05:15:16;;;;;;;;;;;;;;;18.58;60.98;100946.91;5078136;28;1087;-54
2021/08/21 05:17:48;;;;;;;;;;;;;;;19.24;60.90;100964.19;5092692;28;1976;-55
2021/08/21 05:20:51;;;;;;;;;;;;;;;19.72;60.69;100958.00;5098394;28;1379;-58
2021/08/21 05:23:18;;;;;;;;;;;;;;;20.17;61.38;100953.97;5090458;28;1468;-58
2021/08/21 05:25:46;;;;;;;;;;;;;;;19.85;63.90;100957.31;5095900;28;744;-57
2021/08/21 05:28:14;;;;;;;;;;;;;;;19.81;65.20;100954.34;5096639;28;784;-58
2021/08/21 05:30:40;;;;;;;;;;;;;;;19.67;62.78;100956.13;5062363;28;1419;-57
2021/08/21 05:33:12;;;;;;;;;;;;;;;19.76;58.25;100961.81;5115838;28;962;-57
2021/08/21 05:35:38;;;;;;;;;;;;;;;20.15;56.69;100956.19;5119101;28;1183;-47
2021/08/21 05:38:04;;;;;;;;;;;;;;;20.63;59.46;100971.06;5097498;28;2029;-58
2021/08/21 05:40:30;;;;;;;;;;;;;;;20.93;61.31;100967.09;5099645;28;783;-51
2021/08/21 05:42:55;;;;;;;;;;;;;;;20.96;62.53;100965.69;5104759;28;748;-58
2021/08/21 05:45:20;;;;;;;;;;;;;;;20.77;63.67;100971.19;5119829;28;759;-45
2021/08/21 05:47:46;;;;;;;;;;;;;;;20.44;63.26;100959.97;5119446;28;1032;-57
2021/08/21 05:50:11;;;;;;;;;;;;;;;19.45;59.63;100953.81;5119758;28;818;-47
2021/08/21 05:52:37;;;;;;;;;;;;;;;19.46;59.14;100953.53;5119400;28;835;-57
2021/08/21 05:55:02;;;;;;;;;;;;;;;19.53;60.50;100957.88;5119179;28;851;-45
2021/08/21 05:57:41;;;;;;;;;;;;;;;19.62;61.54;100956.16;5101545;28;1934;-45
2021/08/21 06:00:07;;;;;;;;;;;;;;;19.64;60.53;100953.91;5119538;28;736;-56
2021/08/21 06:02:38;;;;;;;;;;;;;;;19.79;59.48;100951.03;5119072;28;1029;-56
2021/08/21 06:05:04;;;;;;;;;;;;;;;19.81;58.99;100954.34;5119550;28;804;-58
2021/08/21 06:07:30;;;;;;;;;;;;;;;19.84;58.74;100958.47;5100714;28;1169;-59
2021/08/21 06:09:56;;;;;;;;;;;;;;;19.80;58.96;100958.22;5101288;28;1160;-57
2021/08/21 06:12:22;;;;;;;;;;;;;;;19.92;58.60;100955.06;5118070;28;1205;-51
2021/08/21 06:14:48;;;;;;;;;;;;;;;19.97;58.24;100956.94;5111942;28;1435;-56
2021/08/21 06:17:13;;;;;;;;;;;;;;;19.90;58.47;100957.28;5116176;28;1222;-57
2021/08/21 06:19:38;;;;;;;;;;;;;;;19.85;58.56;100964.78;5108183;28;1918;-58
2021/08/21 06:22:04;;;;;;;;;;;;;;;19.44;59.88;100950.22;5114931;28;1230;-55
2021/08/21 06:24:30;;;;;;;;;;;;;;;19.28;60.38;100957.00;5109925;28;879;-46
2021/08/21 06:26:55;;;;;;;;;;;;;;;19.06;60.08;100961.00;5102615;28;1503;-56
2021/08/21 06:29:20;;;;;;;;;;;;;;;18.72;61.50;100958.97;5099246;28;1426;-55
2021/08/21 06:31:46;;;;;;;;;;;;;;;19.37;60.45;100960.75;5102209;28;973;-44
2021/08/21 06:34:11;;;;;;;;;;;;;;;19.47;60.16;100951.59;5117994;28;851;-47
2021/08/21 06:36:37;;;;;;;;;;;;;;;19.63;60.01;100955.03;5114667;28;603;-45
2021/08/21 06:39:02;;;;;;;;;;;;;;;19.78;59.80;100957.66;5118182;28;1909;-47
2021/08/21 06:41:27;;;;;;;;;;;;;;;19.55;60.44;100955.66;5114363;28;1177;-47
2021/08/21 06:43:53;;;;;;;;;;;;;;;19.31;61.24;100951.72;5099539;28;1098;-48
2021/08/21 06:46:29;;;;;;;;;;;;;;;19.04;60.83;100952.19;5103918;28;829;-48
2021/08/21 06:48:55;;;;;;;;;;;;;;;18.87;60.60;100954.47;5104661;28;736;-47
2021/08/21 06:51:20;;;;;;;;;;;;;;;19.46;61.60;100953.53;5098174;28;854;-48
2021/08/21 06:53:46;;;;;;;;;;;;;;;19.53;61.15;100952.34;5097697;28;878;-48
2021/08/21 06:56:11;;;;;;;;;;;;;;;19.79;60.00;100955.72;5099738;28;768;-47
2021/08/21 06:58:37;;;;;;;;;;;;;;;19.85;59.86;100959.28;5098417;28;1909;-45
2021/08/21 07:01:02;;;;;;;;;;;;;;;19.74;60.11;100964.03;5104743;28;1285;-54
2021/08/21 07:03:28;;;;;;;;;;;;;;;19.42;61.38;100949.69;5104601;28;1363;-57
2021/08/21 07:05:53;;;;;;;;;;;;;;;19.47;61.03;100957.94;5111038;28;887;-57
2021/08/21 07:08:18;;;;;;;;;;;;;;;18.92;59.76;100954.47;5101805;28;1042;-56
2021/08/21 07:10:44;;;;;;;;;;;;;;;19.17;61.63;100966.41;5098004;28;754;-50
2021/08/21 07:13:10;;;;;;;;;;;;;;;19.63;61.28;100963.31;5111307;28;855;-52
2021/08/21 07:15:35;;;;;;;;;;;;;;;19.73;60.81;100963.22;5118179;28;786;-56
2021/08/21 07:18:01;;;;;;;;;;;;;;;19.78;60.44;100956.81;5110758;28;1898;-47
2021/08/21 07:20:26;;;;;;;;;;;;;;;19.92;60.00;100959.75;5096984;28;855;-50
2021/08/21 07:22:52;;;;;;;;;;;;;;;19.69;60.99;100958.56;5105637;28;1344;-45
2021/08/21 07:25:17;;;;;;;;;;;;;;;19.56;61.29;100957.28;5112484;28;740;-58
2021/08/21 07:27:43;;;;;;;;;;;;;;;19.37;60.89;100962.72;5117229;28;752;-56
2021/08/21 07:30:08;;;;;;;;;;;;;;;18.58;60.48;100956.00;5104709;28;1711;-56
2021/08/21 07:32:34;;;;;;;;;;;;;;;19.01;62.20;100965.72;5117430;28;911;-48
2021/08/21 07:35:00;;;;;;;;;;;;;;;19.82;61.78;100960.66;5112207;28;911;-45
2021/08/21 07:37:26;;;;;;;;;;;;;;;20.12;62.50;100965.06;5101283;28;832;-56
2021/08/21 07:39:51;;;;;;;;;;;;;;;20.12;63.51;100965.06;5117395;28;1921;-47
2021/08/21 07:42:16;;;;;;;;;;;;;;;20.20;64.13;100958.06;5117163;28;744;-49
2021/08/21 07:44:42;;;;;;;;;;;;;;;19.96;63.92;100958.91;5108564;28;871;-49
2021/08/21 07:47:08;;;;;;;;;;;;;;;19.07;60.93;100965.41;5104808;28;1025;-56
2021/08/21 07:49:33;;;;;;;;;;;;;;;18.74;60.97;100964.19;5098688;28;1375;-56
2021/08/21 07:51:58;;;;;;;;;;;;;;;19.20;61.63;100955.66;5116439;28;867;-57
2021/08/21 07:54:24;;;;;;;;;;;;;;;19.08;61.75;100961.53;5107729;28;1352;-49
2021/08/21 07:56:49;;;;;;;;;;;;;;;19.12;59.81;100954.31;5104314;28;1375;-48
2021/08/21 07:59:15;;;;;;;;;;;;;;;19.19;58.30;100965.03;5106085;28;1917;-59
2021/08/21 08:01:40;;;;;;;;;;;;;;;19.10;57.30;100964.81;5101207;28;1173;-52
2021/08/21 08:04:06;;;;;;;;;;;;;;;19.23;56.13;100962.53;5114496;28;1131;-46
2021/08/21 08:06:31;;;;;;;;;;;;;;;19.28;55.46;100951.47;5105834;28;1018;-48
2021/08/21 08:08:56;;;;;;;;;;;;;;;19.15;55.42;100963.94;5103468;28;1424;-54
2021/08/21 08:11:22;;;;;;;;;;;;;;;19.05;55.41;100959.34;5102753;28;744;-57
2021/08/21 08:13:47;;;;;;;;;;;;;;;19.11;54.88;100957.38;5115721;28;756;-56
2021/08/21 08:16:13;;;;;;;;;;;;;;;19.11;54.30;100960.13;5116320;28;839;-46
2021/08/21 08:18:38;;;;;;;;;;;;;;;19.01;54.63;100969.28;5117140;28;1909;-48
2021/08/21 08:21:03;;;;;;;;;;;;;;;19.25;54.68;100963.06;5116776;28;743;-56
2021/08/21 08:23:29;;;;;;;;;;;;;;;19.37;55.72;100965.47;5114567;28;1205;-49
2021/08/21 08:25:54;;;;;;;;;;;;;;;19.54;56.51;100965.03;5096607;28;815;-46
2021/08/21 08:28:20;;;;;;;;;;;;;;;19.44;57.89;100960.44;5100097;28;848;-50
2021/08/21 08:30:45;;;;;;;;;;;;;;;19.70;58.10;100974.00;5097818;28;799;-54
2021/08/21 08:33:11;;;;;;;;;;;;;;;19.82;58.27;100963.44;5103145;28;804;-48
2021/08/21 08:35:36;;;;;;;;;;;;;;;19.77;58.81;100964.28;5096137;28;779;-51
2021/08/21 08:38:01;;;;;;;;;;;;;;;19.46;60.06;100961.81;5096104;28;1909;-45
2021/08/21 08:40:27;;;;;;;;;;;;;;;19.55;60.10;100950.16;5096777;28;823;-45
2021/08/21 08:42:52;;;;;;;;;;;;;;;18.93;60.01;100961.66;5106321;28;840;-47
2021/08/21 08:45:18;;;;;;;;;;;;;;;18.68;60.82;100960.63;5078469;28;781;-55
2021/08/21 08:47:43;;;;;;;;;;;;;;;19.46;61.46;100950.78;5109181;28;876;-51
2021/08/21 08:50:10;;;;;;;;;;;;;;;19.74;62.22;100964.03;5116584;28;759;-55
2021/08/21 08:52:36;;;;;;;;;;;;;;;20.05;62.30;100970.09;5116265;28;879;-55
2021/08/21 08:55:04;;;;;;;;;;;;;;;20.02;63.70;100970.69;5115881;28;884;-46
2021/08/21 08:57:33;;;;;;;;;;;;;;;19.79;64.11;100961.22;5116243;28;748;-52
2021/08/21 08:59:59;;;;;;;;;;;;;;;19.40;61.07;100951.91;5116363;28;1914;-59
2021/08/21 09:02:31;;;;;;;;;;;;;;;19.31;58.90;100967.44;5116503;28;910;-58
2021/08/21 09:05:00;;;;;;;;;;;;;;;20.37;61.50;100960.38;5118655;28;771;-59
2021/08/21 09:07:36;;;;;;;;;;;;;;;20.75;63.01;100965.13;5119517;28;1156;-59
2021/08/21 09:10:21;;;;;;;;;;;;;;;20.41;65.71;100961.41;5120580;28;767;-59
2021/08/21 09:12:47;;;;;;;;;;;;;;;20.13;66.85;100963.94;5120190;28;766;-59
2021/08/21 09:15:18;;;;;;;;;;;;;;;19.77;63.91;100956.00;5120047;28;844;-60
2021/08/21 09:17:59;;;;;;;;;;;;;;;18.89;59.32;100949.53;5116455;28;1910;-50
2021/08/21 09:20:24;;;;;;;;;;;;;;;19.12;60.07;100943.28;5117836;28;796;-57
2021/08/21 09:22:50;;;;;;;;;;;;;;;19.03;60.16;100945.03;5111824;28;800;-54
2021/08/21 09:25:27;;;;;;;;;;;;;;;19.00;57.28;100951.13;5099525;28;874;-57
2021/08/21 09:27:52;;;;;;;;;;;;;;;19.04;55.42;100954.94;5099431;28;752;-57
2021/08/21 09:30:18;;;;;;;;;;;;;;;19.00;55.07;100948.38;5100071;28;744;-56
2021/08/21 09:32:43;;;;;;;;;;;;;;;19.00;55.89;100955.78;5111423;28;919;-57
2021/08/21 09:35:09;;;;;;;;;;;;;;;19.22;56.69;100958.94;5119527;28;810;-54
2021/08/21 09:38:04;;;;;;;;;;;;;;;19.38;58.06;100956.91;5101722;28;1428;-55
2021/08/21 09:40:34;;;;;;;;;;;;;;;19.48;58.76;100956.81;5097761;28;1476;-51
2021/08/21 09:43:00;;;;;;;;;;;;;;;19.81;58.67;100959.03;5116114;28;800;-55
2021/08/21 09:45:25;;;;;;;;;;;;;;;19.75;59.31;100958.22;5118939;28;834;-56
2021/08/21 09:48:00;;;;;;;;;;;;;;;19.39;60.87;100953.03;5119067;28;950;-48
2021/08/21 09:50:26;;;;;;;;;;;;;;;19.46;61.10;100945.25;5106127;28;1542;-58
2021/08/21 09:52:58;;;;;;;;;;;;;;;19.02;60.86;100943.38;5107904;28;808;-47
2021/08/21 09:55:25;;;;;;;;;;;;;;;18.63;61.00;100941.38;5117641;28;1432;-48
2021/08/21 09:58:00;;;;;;;;;;;;;;;19.30;62.71;100938.22;5100623;28;1980;-59
2021/08/21 10:00:26;;;;;;;;;;;;;;;19.69;61.75;100945.59;5119598;28;804;-47
2021/08/21 10:02:52;;;;;;;;;;;;;;;19.93;62.36;100933.81;5118586;28;911;-49
2021/08/21 10:05:17;;;;;;;;;;;;;;;20.01;63.84;100938.69;5119612;28;815;-55
2021/08/21 10:07:47;;;;;;;;;;;;;;;19.99;65.02;100940.91;5119090;28;937;-46
2021/08/21 10:10:14;;;;;;;;;;;;;;;19.53;63.27;100933.06;5107471;28;1274;-48
2021/08/21 10:12:41;;;;;;;;;;;;;;;19.30;60.22;100932.69;5081106;28;839;-47
2021/08/21 10:15:06;;;;;;;;;;;;;;;19.46;59.88;100936.97;5098662;28;851;-48
2021/08/21 10:17:32;;;;;;;;;;;;;;;19.77;62.33;100938.63;5108782;28;979;-48
2021/08/21 10:19:57;;;;;;;;;;;;;;;19.96;63.35;100935.97;5119123;28;1987;-51
2021/08/21 10:22:26;;;;;;;;;;;;;;;19.92;63.58;100943.19;5118971;28;783;-47
2021/08/21 10:24:51;;;;;;;;;;;;;;;19.96;62.90;100935.97;5096979;28;851;-55
2021/08/21 10:27:24;;;;;;;;;;;;;;;19.97;61.68;100943.13;5096761;28;971;-55
2021/08/21 10:29:59;;;;;;;;;;;;;;;19.85;61.23;100938.00;5100162;28;1380;-47
2021/08/21 10:32:32;;;;;;;;;;;;;;;19.52;61.43;100937.75;5118144;28;910;-50
2021/08/21 10:34:57;;;;;;;;;;;;;;;19.42;61.51;100930.41;5118819;28;763;-55
2021/08/21 10:37:31;;;;;;;;;;;;;;;19.14;60.79;100935.56;5117803;28;875;-54
2021/08/21 10:39:57;;;;;;;;;;;;;;;18.45;59.43;100937.31;5118385;28;1934;-56
2021/08/21 10:42:33;;;;;;;;;;;;;;;19.07;61.90;100935.09;5109741;28;1377;-56
2021/08/21 10:45:02;;;;;;;;;;;;;;;19.43;61.08;100943.09;5099689;28;843;-46
2021/08/21 10:47:31;;;;;;;;;;;;;;;19.71;59.86;100937.84;5108619;28;954;-55
2021/08/21 10:50:15;;;;;;;;;;;;;;;19.77;59.55;100941.41;5117857;28;847;-57
2021/08/21 10:53:00;;;;;;;;;;;;;;;19.62;60.43;100931.31;5118212;28;863;-46
2021/08/21 10:55:25;;;;;;;;;;;;;;;19.38;61.12;100940.34;5118156;28;799;-56
2021/08/21 10:58:00;;;;;;;;;;;;;;;19.19;60.84;100926.44;5118273;28;1910;-53
2021/08/21 11:00:38;;;;;;;;;;;;;;;18.47;60.24;100932.38;5116817;28;1527;-54
2021/08/21 11:03:13;;;;;;;;;;;;;;;19.20;61.81;100927.28;5117540;28;946;-50
2021/08/21 11:05:48;;;;;;;;;;;;;;;19.71;62.38;100931.50;5099627;28;1001;-54
2021/08/21 11:08:14;;;;;;;;;;;;;;;20.06;63.00;100926.75;5117938;28;1210;-54
2021/08/21 11:10:39;;;;;;;;;;;;;;;20.03;64.35;100930.91;5117919;28;811;-57
2021/08/21 11:13:07;;;;;;;;;;;;;;;20.23;64.77;100938.16;5099781;28;863;-56
2021/08/21 11:15:33;;;;;;;;;;;;;;;19.76;61.72;100935.03;5117217;28;922;-57
2021/08/21 11:17:58;;;;;;;;;;;;;;;18.87;60.04;100941.53;5117322;28;1982;-56
2021/08/21 11:20:28;;;;;;;;;;;;;;;19.35;62.33;100940.94;5117997;28;812;-57
2021/08/21 11:23:08;;;;;;;;;;;;;;;19.63;62.06;100944.81;5117839;28;824;-56
2021/08/21 11:25:37;;;;;;;;;;;;;;;19.56;61.19;100940.75;5117774;28;776;-52
2021/08/21 11:28:03;;;;;;;;;;;;;;;19.51;59.85;100943.56;5115858;28;1008;-50
2021/08/21 11:30:28;;;;;;;;;;;;;;;19.64;58.40;100938.19;5117895;28;779;-58
2021/08/21 11:33:00;;;;;;;;;;;;;;;19.48;58.31;100940.25;5117125;28;1060;-49
2021/08/21 11:35:25;;;;;;;;;;;;;;;19.45;58.11;100940.03;5114919;28;1419;-57
2021/08/21 11:37:52;;;;;;;;;;;;;;;19.53;57.47;100933.06;5111159;28;1955;-48
2021/08/21 11:40:18;;;;;;;;;;;;;;;19.55;57.08;100933.59;5108030;28;1463;-57
2021/08/21 11:42:54;;;;;;;;;;;;;;;19.46;57.17;100925.94;5103064;28;1423;-57
2021/08/21 11:45:19;;;;;;;;;;;;;;;19.51;56.83;100918.75;5097106;28;811;-57
2021/08/21 11:47:45;;;;;;;;;;;;;;;19.45;56.71;100921.53;5091035;28;1369;-57
2021/08/21 11:50:23;;;;;;;;;;;;;;;19.46;56.52;100923.19;5117535;28;795;-57
2021/08/21 11:52:49;;;;;;;;;;;;;;;19.48;56.35;100920.13;5116917;28;852;-51
2021/08/21 11:55:15;;;;;;;;;;;;;;;19.59;55.86;100918.94;5116977;28;799;-57
2021/08/21 11:57:41;;;;;;;;;;;;;;;19.44;56.19;100922.63;5110380;28;775;-57
2021/08/21 12:00:11;;;;;;;;;;;;;;;19.54;56.04;100920.91;5096941;28;1914;-57
2021/08/21 12:02:46;;;;;;;;;;;;;;;19.39;56.23;100919.09;5102104;28;808;-57
2021/08/21 12:05:11;;;;;;;;;;;;;;;19.47;56.07;100912.97;5103959;28;846;-58
2021/08/21 12:07:37;;;;;;;;;;;;;;;19.52;56.13;100917.59;5116895;28;1001;-54
2021/08/21 12:10:02;;;;;;;;;;;;;;;19.47;56.03;100916.56;5116732;28;747;-57
2021/08/21 12:12:29;;;;;;;;;;;;;;;19.51;55.92;100911.28;5117128;28;736;-58
2021/08/21 12:14:54;;;;;;;;;;;;;;;19.52;56.02;100909.34;5099596;28;744;-57
2021/08/21 12:17:19;;;;;;;;;;;;;;;19.17;56.78;100908.53;5089042;28;1214;-58
2021/08/21 12:19:45;;;;;;;;;;;;;;;19.14;57.14;100907.19;5107224;28;1976;-59
2021/08/21 12:22:12;;;;;;;;;;;;;;;18.91;57.04;100904.03;5096127;28;735;-57
2021/08/21 12:24:50;;;;;;;;;;;;;;;18.43;59.11;100904.56;5078898;28;834;-56
2021/08/21 12:27:25;;;;;;;;;;;;;;;19.05;57.16;100901.47;5096623;28;795;-60
2021/08/21 12:30:06;;;;;;;;;;;;;;;19.25;57.33;100907.91;5096462;28;1458;-55
2021/08/21 12:32:31;;;;;;;;;;;;;;;19.49;57.38;100914.34;5108642;28;875;-54
2021/08/21 12:35:08;;;;;;;;;;;;;;;19.63;57.90;100913.66;5116955;28;787;-70
2021/08/21 12:37:34;;;;;;;;;;;;;;;19.51;58.76;100910.47;5116025;28;790;-52
2021/08/21 12:40:07;;;;;;;;;;;;;;;19.36;59.83;100900.38;5118914;28;1918;-50
2021/08/21 12:42:32;;;;;;;;;;;;;;;19.44;59.42;100906.09;5117449;28;1309;-57
2021/08/21 12:44:57;;;;;;;;;;;;;;;18.66;59.49;100905.00;5117445;28;843;-53
2021/08/21 12:47:23;;;;;;;;;;;;;;;19.25;61.26;100907.91;5118542;28;1422;-57
2021/08/21 12:49:49;;;;;;;;;;;;;;;19.52;60.86;100909.34;5120974;28;782;-60
2021/08/21 12:52:25;;;;;;;;;;;;;;;19.73;60.21;100902.50;5120731;28;815;-60
2021/08/21 12:55:00;;;;;;;;;;;;;;;19.64;60.37;100909.78;5120668;28;744;-48